Time;durP1;ratioP1;P1;durP2;ratioP2;P2;SDS_P1;SDS_P2;PMS_P1;PMS_P2;Temp;Humidity;BMP_temperature;BMP_pressure;BME280_temperature;BME280_humidity;BME280_pressure;Samples;Min_cycle;Max_cycle;Signal;HPM_P1;HPM_P2
2022/09/06 00:00:34;;;;;;;1.57;1.47;;;;;;;;;;5078028;28;20606;-64
2022/09/06 00:03:06;;;;;;;1.80;1.70;;;;;;;;;;5063626;28;20232;-64
2022/09/06 00:05:42;;;;;;;2.20;1.50;;;;;;;;;;5078658;28;20201;-64
2022/09/06 00:08:14;;;;;;;1.63;1.40;;;;;;;;;;5067687;28;20922;-64
2022/09/06 00:10:44;;;;;;;2.40;1.90;;;;;;;;;;5075230;28;20196;-64
2022/09/06 00:13:15;;;;;;;3.33;2.00;;;;;;;;;;5070933;28;20615;-64
2022/09/06 00:15:45;;;;;;;2.30;1.93;;;;;;;;;;5057877;28;20661;-64
2022/09/06 00:18:16;;;;;;;3.80;1.90;;;;;;;;;;5054719;28;20296;-64
2022/09/06 00:20:48;;;;;;;1.73;1.63;;;;;;;;;;5055152;28;20229;-64
2022/09/06 00:23:17;;;;;;;2.00;1.50;;;;;;;;;;5067373;28;20194;-65
2022/09/06 00:26:05;;;;;;;1.60;1.30;;;;;;;;;;5074695;28;20304;-64
2022/09/06 00:28:36;;;;;;;1.30;1.20;;;;;;;;;;5050904;28;20698;-64
2022/09/06 00:31:17;;;;;;;1.67;1.33;;;;;;;;;;5050370;28;20289;-64
2022/09/06 00:33:50;;;;;;;1.77;1.67;;;;;;;;;;5065371;28;20754;-64
2022/09/06 00:36:33;;;;;;;2.10;1.30;;;;;;;;;;5066759;28;20206;-64
2022/09/06 00:39:02;;;;;;;1.70;1.43;;;;;;;;;;5081348;28;20217;-64
2022/09/06 00:41:30;;;;;;;3.03;1.53;;;;;;;;;;5039931;28;20221;-64
2022/09/06 00:43:58;;;;;;;1.87;1.50;;;;;;;;;;5085880;28;20193;-64
2022/09/06 00:46:31;;;;;;;1.60;1.50;;;;;;;;;;5067167;28;20578;-64
2022/09/06 00:49:02;;;;;;;2.43;1.53;;;;;;;;;;5055351;28;20611;-64
2022/09/06 00:51:36;;;;;;;2.97;1.87;;;;;;;;;;5048933;28;20201;-64
2022/09/06 00:54:13;;;;;;;3.43;1.60;;;;;;;;;;5064887;28;20263;-64
2022/09/06 00:56:58;;;;;;;2.60;1.73;;;;;;;;;;5065455;28;20297;-65
2022/09/06 00:59:30;;;;;;;2.90;1.40;;;;;;;;;;5075150;28;20208;-64
2022/09/06 01:02:00;;;;;;;2.50;1.60;;;;;;;;;;5034852;28;20249;-64
2022/09/06 01:04:34;;;;;;;4.13;1.53;;;;;;;;;;5074883;28;20205;-64
2022/09/06 01:07:20;;;;;;;1.70;1.57;;;;;;;;;;5066515;28;20217;-64
2022/09/06 01:10:08;;;;;;;1.50;1.40;;;;;;;;;;5078131;28;20189;-64
2022/09/06 01:12:52;;;;;;;1.70;1.47;;;;;;;;;;5070793;28;20521;-64
2022/09/06 01:15:38;;;;;;;1.67;1.57;;;;;;;;;;5070873;28;20221;-64
2022/09/06 01:18:23;;;;;;;2.13;1.80;;;;;;;;;;5081801;28;20205;-64
2022/09/06 01:21:20;;;;;;;1.60;1.50;;;;;;;;;;5074112;28;20208;-64
2022/09/06 01:24:12;;;;;;;1.47;1.37;;;;;;;;;;5064160;28;20198;-64
2022/09/06 01:27:07;;;;;;;2.03;1.60;;;;;;;;;;5029152;28;20205;-64
2022/09/06 01:29:56;;;;;;;1.87;1.67;;;;;;;;;;5053301;28;20224;-64
2022/09/06 01:32:37;;;;;;;1.67;1.40;;;;;;;;;;5069292;28;20257;-64
2022/09/06 01:35:24;;;;;;;1.50;1.40;;;;;;;;;;5066523;28;20205;-64
2022/09/06 01:37:54;;;;;;;1.77;1.67;;;;;;;;;;5048395;28;20232;-64
2022/09/06 01:40:27;;;;;;;3.03;1.53;;;;;;;;;;5071539;28;20226;-64
2022/09/06 01:42:56;;;;;;;4.23;2.03;;;;;;;;;;5070004;28;20524;-64
2022/09/06 01:45:40;;;;;;;1.50;1.40;;;;;;;;;;5069173;28;20182;-64
2022/09/06 01:48:11;;;;;;;2.30;1.70;;;;;;;;;;5064054;28;20237;-64
2022/09/06 01:50:59;;;;;;;2.80;1.90;;;;;;;;;;5045811;28;20812;-64
2022/09/06 01:53:46;;;;;;;2.07;1.60;;;;;;;;;;5049814;28;20199;-64
2022/09/06 01:56:33;;;;;;;2.43;1.73;;;;;;;;;;5057456;28;20213;-63
2022/09/06 01:59:15;;;;;;;2.83;1.57;;;;;;;;;;5039536;28;20210;-63
2022/09/06 02:02:03;;;;;;;2.80;1.60;;;;;;;;;;5042822;28;20299;-63
2022/09/06 02:04:45;;;;;;;1.50;1.40;;;;;;;;;;5045916;28;20194;-63
2022/09/06 02:07:23;;;;;;;1.60;1.47;;;;;;;;;;5049122;28;20190;-63
2022/09/06 02:10:17;;;;;;;2.00;1.80;;;;;;;;;;5049350;28;20199;-63
2022/09/06 02:12:46;;;;;;;3.00;1.70;;;;;;;;;;5053155;28;20202;-65
2022/09/06 02:15:20;;;;;;;2.77;1.63;;;;;;;;;;5039976;28;20210;-65
2022/09/06 02:18:00;;;;;;;2.00;1.80;;;;;;;;;;5028356;28;20198;-62
2022/09/06 02:20:35;;;;;;;1.83;1.73;;;;;;;;;;5049790;28;20194;-65
2022/09/06 02:23:07;;;;;;;4.10;1.83;;;;;;;;;;5031891;28;20204;-64
2022/09/06 02:25:42;;;;;;;2.40;1.77;;;;;;;;;;5036231;28;20193;-64
2022/09/06 02:28:14;;;;;;;2.33;1.70;;;;;;;;;;5039247;28;20537;-64
2022/09/06 02:30:46;;;;;;;2.00;1.90;;;;;;;;;;5049674;28;20207;-64
2022/09/06 02:33:19;;;;;;;2.10;1.90;;;;;;;;;;5066311;28;20207;-64
2022/09/06 02:35:49;;;;;;;8.37;2.00;;;;;;;;;;5065084;28;20206;-64
2022/09/06 02:38:18;;;;;;;1.93;1.80;;;;;;;;;;5031447;28;20710;-64
2022/09/06 02:40:48;;;;;;;3.07;2.10;;;;;;;;;;5077024;28;20202;-64
2022/09/06 02:43:20;;;;;;;2.63;1.87;;;;;;;;;;5041468;28;20198;-64
2022/09/06 02:46:05;;;;;;;2.67;2.00;;;;;;;;;;5062010;28;20251;-64
2022/09/06 02:48:37;;;;;;;3.80;2.23;;;;;;;;;;5051910;28;20199;-64
2022/09/06 02:51:08;;;;;;;2.33;2.10;;;;;;;;;;5048891;28;20260;-64
2022/09/06 02:53:52;;;;;;;3.17;2.13;;;;;;;;;;5047633;28;20233;-64
2022/09/06 02:56:20;;;;;;;2.53;1.70;;;;;;;;;;5069029;28;20201;-64
2022/09/06 02:58:51;;;;;;;2.20;2.00;;;;;;;;;;5050325;28;20198;-64
2022/09/06 03:01:24;;;;;;;3.20;2.13;;;;;;;;;;5049259;28;20230;-64
2022/09/06 03:03:56;;;;;;;2.73;2.33;;;;;;;;;;5043058;28;20582;-64
2022/09/06 03:06:26;;;;;;;3.10;2.23;;;;;;;;;;5038539;28;20206;-64
2022/09/06 03:08:58;;;;;;;4.00;2.30;;;;;;;;;;5050487;28;20202;-64
2022/09/06 03:11:32;;;;;;;4.27;2.67;;;;;;;;;;5034592;28;20194;-64
2022/09/06 03:14:00;;;;;;;2.47;2.10;;;;;;;;;;5044670;28;20691;-65
2022/09/06 03:16:30;;;;;;;3.60;2.00;;;;;;;;;;5030116;28;20202;-64
2022/09/06 03:19:01;;;;;;;5.27;2.40;;;;;;;;;;5048143;28;20251;-64
2022/09/06 03:21:31;;;;;;;3.00;2.47;;;;;;;;;;5047349;28;20233;-64
2022/09/06 03:24:04;;;;;;;2.27;1.97;;;;;;;;;;5035210;28;20278;-64
2022/09/06 03:26:33;;;;;;;3.43;2.00;;;;;;;;;;5056051;28;20203;-64
2022/09/06 03:29:08;;;;;;;2.33;2.13;;;;;;;;;;5048693;28;20872;-64
2022/09/06 03:31:36;;;;;;;2.20;2.00;;;;;;;;;;5046057;28;20212;-64
2022/09/06 03:34:06;;;;;;;3.20;2.20;;;;;;;;;;5033101;28;20511;-64
2022/09/06 03:36:40;;;;;;;3.10;2.40;;;;;;;;;;5047921;28;20198;-64
2022/09/06 03:39:16;;;;;;;3.60;2.40;;;;;;;;;;5047870;28;20205;-64
2022/09/06 03:41:45;;;;;;;2.73;2.37;;;;;;;;;;5054561;28;20226;-64
2022/09/06 03:44:20;;;;;;;2.67;1.97;;;;;;;;;;5037156;28;20190;-64
2022/09/06 03:46:56;;;;;;;6.40;2.10;;;;;;;;;;5037482;28;20242;-64
2022/09/06 03:49:31;;;;;;;2.80;2.27;;;;;;;;;;5048336;28;20190;-64
2022/09/06 03:52:01;;;;;;;2.70;2.50;;;;;;;;;;5042310;28;20221;-64
2022/09/06 03:54:37;;;;;;;5.20;2.70;;;;;;;;;;5054362;28;20227;-64
2022/09/06 03:57:07;;;;;;;3.07;2.60;;;;;;;;;;5048057;28;20214;-64
2022/09/06 03:59:38;;;;;;;5.40;2.83;;;;;;;;;;5078192;28;20213;-64
2022/09/06 04:02:10;;;;;;;4.83;3.30;;;;;;;;;;5050138;28;20245;-64
2022/09/06 04:04:42;;;;;;;3.47;2.90;;;;;;;;;;5053909;28;20204;-64
2022/09/06 04:07:17;;;;;;;4.23;3.03;;;;;;;;;;5048281;28;20285;-64
2022/09/06 04:09:47;;;;;;;5.07;3.70;;;;;;;;;;5047382;28;20263;-64
2022/09/06 04:12:17;;;;;;;6.37;4.10;;;;;;;;;;5046441;28;20198;-64
2022/09/06 04:14:45;;;;;;;6.10;5.03;;;;;;;;;;5044181;28;20210;-64
2022/09/06 04:17:17;;;;;;;8.03;5.20;;;;;;;;;;5047680;28;20205;-64
2022/09/06 04:19:48;;;;;;;8.93;5.83;;;;;;;;;;5051276;28;20197;-64
2022/09/06 04:22:19;;;;;;;8.33;6.27;;;;;;;;;;5053241;28;20226;-64
2022/09/06 04:24:50;;;;;;;8.00;6.30;;;;;;;;;;5051413;28;20648;-64
2022/09/06 04:27:21;;;;;;;7.40;5.73;;;;;;;;;;5048078;28;20659;-64
2022/09/06 04:29:51;;;;;;;9.70;5.83;;;;;;;;;;5042156;28;20198;-64
2022/09/06 04:32:24;;;;;;;9.93;6.03;;;;;;;;;;5078154;28;20201;-63
2022/09/06 04:34:56;;;;;;;10.83;6.13;;;;;;;;;;5046842;28;20205;-63
2022/09/06 04:37:26;;;;;;;7.80;4.87;;;;;;;;;;5074992;28;20210;-64
2022/09/06 04:39:58;;;;;;;7.03;5.43;;;;;;;;;;5040539;28;20211;-64
2022/09/06 04:42:37;;;;;;;7.27;4.90;;;;;;;;;;5045488;28;20233;-64
2022/09/06 04:45:15;;;;;;;6.80;4.73;;;;;;;;;;5052056;28;20190;-65
2022/09/06 04:47:56;;;;;;;6.70;3.80;;;;;;;;;;5077202;28;20234;-65
2022/09/06 04:50:25;;;;;;;5.13;3.50;;;;;;;;;;5047321;28;20272;-65
2022/09/06 04:53:00;;;;;;;4.03;3.20;;;;;;;;;;5047658;28;20600;-64
2022/09/06 04:55:32;;;;;;;3.37;2.87;;;;;;;;;;5051564;28;20194;-65
2022/09/06 04:58:02;;;;;;;4.87;2.90;;;;;;;;;;5076230;28;20217;-64
2022/09/06 05:00:37;;;;;;;5.00;2.97;;;;;;;;;;5046920;28;20198;-63
2022/09/06 05:03:19;;;;;;;3.33;2.83;;;;;;;;;;5072668;28;20327;-66
2022/09/06 05:05:52;;;;;;;4.93;3.17;;;;;;;;;;5055744;28;20190;-65
2022/09/06 05:08:23;;;;;;;3.70;2.30;;;;;;;;;;5047346;28;20217;-65
2022/09/06 05:10:58;;;;;;;3.57;2.87;;;;;;;;;;5032512;28;20207;-64
2022/09/06 05:13:32;;;;;;;2.93;2.63;;;;;;;;;;5047224;28;20497;-64
2022/09/06 05:16:03;;;;;;;3.93;2.57;;;;;;;;;;5042061;28;20210;-65
2022/09/06 05:18:33;;;;;;;5.80;2.40;;;;;;;;;;5048794;28;20209;-65
2022/09/06 05:21:04;;;;;;;2.80;2.30;;;;;;;;;;5054702;28;20600;-66
2022/09/06 05:23:32;;;;;;;3.40;2.40;;;;;;;;;;5079463;28;20233;-67
2022/09/06 05:26:05;;;;;;;2.67;2.27;;;;;;;;;;5056910;28;20214;-67
2022/09/06 05:28:35;;;;;;;3.53;2.20;;;;;;;;;;5049086;28;20202;-66
2022/09/06 05:31:23;;;;;;;2.77;2.20;;;;;;;;;;5037146;28;20194;-66
2022/09/06 05:33:54;;;;;;;2.63;2.20;;;;;;;;;;5047563;28;20671;-64
2022/09/06 05:36:30;;;;;;;4.87;2.07;;;;;;;;;;5051565;28;20202;-65
2022/09/06 05:39:00;;;;;;;3.70;2.30;;;;;;;;;;5049023;28;20209;-65
2022/09/06 05:41:32;;;;;;;3.57;2.50;;;;;;;;;;5048515;28;20198;-65
2022/09/06 05:44:04;;;;;;;7.03;2.60;;;;;;;;;;5081240;28;20214;-67
2022/09/06 05:46:34;;;;;;;4.30;2.67;;;;;;;;;;5081162;28;20245;-67
2022/09/06 05:49:07;;;;;;;3.17;2.73;;;;;;;;;;5079787;28;20205;-64
2022/09/06 05:51:40;;;;;;;5.73;2.60;;;;;;;;;;5041162;28;20225;-63
2022/09/06 05:54:13;;;;;;;3.03;2.60;;;;;;;;;;5080164;28;20345;-63
2022/09/06 05:56:46;;;;;;;3.57;2.97;;;;;;;;;;5079351;28;20218;-64
2022/09/06 05:59:17;;;;;;;3.27;2.90;;;;;;;;;;5072394;28;20195;-63
2022/09/06 06:01:59;;;;;;;3.77;2.83;;;;;;;;;;5039748;28;20252;-63
2022/09/06 06:04:37;;;;;;;3.37;2.97;;;;;;;;;;5054753;28;20200;-63
2022/09/06 06:07:05;;;;;;;4.47;3.27;;;;;;;;;;5052601;28;20201;-63
2022/09/06 06:09:37;;;;;;;3.30;3.00;;;;;;;;;;5050711;28;20201;-63
2022/09/06 06:12:05;;;;;;;3.63;2.90;;;;;;;;;;5047398;28;20256;-63
2022/09/06 06:14:34;;;;;;;3.33;2.90;;;;;;;;;;5045055;28;20235;-62
2022/09/06 06:17:04;;;;;;;2.70;2.50;;;;;;;;;;5046368;28;20212;-63
2022/09/06 06:19:33;;;;;;;3.10;2.87;;;;;;;;;;5048606;28;20202;-62
2022/09/06 06:22:01;;;;;;;6.40;3.40;;;;;;;;;;5046541;28;20218;-63
2022/09/06 06:24:31;;;;;;;4.20;3.17;;;;;;;;;;5051661;28;20205;-63
2022/09/06 06:27:02;;;;;;;3.07;2.73;;;;;;;;;;5045615;28;20214;-65
2022/09/06 06:29:34;;;;;;;18.50;6.13;;;;;;;;;;5049437;28;20187;-64
2022/09/06 06:32:05;;;;;;;16.30;4.10;;;;;;;;;;5045957;28;20230;-66
2022/09/06 06:34:37;;;;;;;6.40;3.67;;;;;;;;;;5049566;28;20224;-66
2022/09/06 06:37:07;;;;;;;5.20;4.07;;;;;;;;;;5047382;28;20686;-67
2022/09/06 06:39:37;;;;;;;5.47;4.17;;;;;;;;;;5040142;28;20268;-67
2022/09/06 06:42:09;;;;;;;4.47;3.60;;;;;;;;;;5047203;28;20215;-65
2022/09/06 06:44:45;;;;;;;5.20;3.80;;;;;;;;;;5048895;28;20274;-65
2022/09/06 06:47:15;;;;;;;7.07;3.80;;;;;;;;;;5062480;28;20229;-66
2022/09/06 06:49:49;;;;;;;8.80;4.30;;;;;;;;;;5043523;28;20576;-64
2022/09/06 06:52:20;;;;;;;6.90;3.57;;;;;;;;;;5047927;28;20194;-65
2022/09/06 06:54:51;;;;;;;9.30;3.70;;;;;;;;;;5046083;28;20252;-65
2022/09/06 06:57:22;;;;;;;6.40;4.40;;;;;;;;;;5069014;28;20628;-64
2022/09/06 06:59:53;;;;;;;5.13;3.77;;;;;;;;;;5045568;28;20252;-72
2022/09/06 07:02:27;;;;;;;5.73;3.83;;;;;;;;;;5043267;28;20287;-70
2022/09/06 07:04:59;;;;;;;4.70;3.57;;;;;;;;;;5080505;28;20264;-70
2022/09/06 07:07:52;;;;;;;3.70;3.37;;;;;;;;;;5046338;28;20191;-69
2022/09/06 07:10:23;;;;;;;6.43;3.40;;;;;;;;;;5048637;28;20258;-69
2022/09/06 07:13:00;;;;;;;4.37;3.40;;;;;;;;;;5048024;28;20205;-67
2022/09/06 07:15:31;;;;;;;4.00;3.37;;;;;;;;;;5044395;28;20215;-67
2022/09/06 07:18:06;;;;;;;5.87;3.50;;;;;;;;;;5050107;28;20230;-69
2022/09/06 07:20:37;;;;;;;4.53;3.10;;;;;;;;;;5052718;28;20209;-69
2022/09/06 07:23:36;;;;;;;3.97;2.93;;;;;;;;;;5041598;28;20713;-69
2022/09/06 07:26:27;;;;;;;3.70;3.10;;;;;;;;;;5054734;28;20203;-67
2022/09/06 07:28:59;;;;;;;3.43;2.97;;;;;;;;;;5047009;28;20197;-69
2022/09/06 07:31:28;;;;;;;4.53;2.87;;;;;;;;;;5056948;28;20795;-69
2022/09/06 07:34:24;;;;;;;5.53;3.43;;;;;;;;;;5045232;28;20198;-71
2022/09/06 07:36:55;;;;;;;8.77;3.30;;;;;;;;;;5047448;28;20224;-70
2022/09/06 07:39:27;;;;;;;4.13;3.10;;;;;;;;;;5040792;28;20780;-73
2022/09/06 07:42:00;;;;;;;7.23;3.27;;;;;;;;;;5047109;28;20191;-70
2022/09/06 07:44:30;;;;;;;4.17;3.23;;;;;;;;;;5080206;28;20191;-70
2022/09/06 07:47:07;;;;;;;3.37;3.07;;;;;;;;;;5050295;28;20246;-70
2022/09/06 07:50:08;;;;;;;4.83;3.13;;;;;;;;;;5042838;28;20218;-70
2022/09/06 07:53:07;;;;;;;5.17;3.20;;;;;;;;;;5046365;28;20217;-70
2022/09/06 07:55:44;;;;;;;4.83;3.13;;;;;;;;;;5043222;28;20198;-71
2022/09/06 07:58:17;;;;;;;3.20;2.90;;;;;;;;;;5046927;28;20196;-71
2022/09/06 08:00:48;;;;;;;5.63;2.73;;;;;;;;;;5046458;28;20198;-70
2022/09/06 08:03:19;;;;;;;4.40;3.23;;;;;;;;;;5034134;28;20230;-72
2022/09/06 08:05:49;;;;;;;2.87;2.43;;;;;;;;;;5046553;28;20505;-71
2022/09/06 08:08:40;;;;;;;4.67;3.03;;;;;;;;;;5042497;28;20194;-70
2022/09/06 08:11:32;;;;;;;3.13;2.80;;;;;;;;;;5021182;28;21013;-74
2022/09/06 08:14:15;;;;;;;3.60;3.00;;;;;;;;;;5040664;28;20311;-70
2022/09/06 08:16:49;;;;;;;3.13;2.80;;;;;;;;;;5050141;28;20728;-70
2022/09/06 08:19:20;;;;;;;2.90;2.33;;;;;;;;;;5063652;28;20632;-70
2022/09/06 08:21:49;;;;;;;4.67;2.63;;;;;;;;;;5040135;28;20194;-68
2022/09/06 08:24:20;;;;;;;2.73;2.40;;;;;;;;;;5042490;28;20219;-65
2022/09/06 08:26:51;;;;;;;3.70;2.60;;;;;;;;;;5028856;28;20234;-66
2022/09/06 08:29:21;;;;;;;4.17;2.07;;;;;;;;;;5063224;28;20201;-68
2022/09/06 08:31:49;;;;;;;6.07;2.37;;;;;;;;;;5040724;28;20202;-66
2022/09/06 08:34:21;;;;;;;3.33;2.07;;;;;;;;;;5042225;28;20230;-66
2022/09/06 08:37:18;;;;;;;4.47;2.10;;;;;;;;;;5044200;28;20206;-66
2022/09/06 08:39:59;;;;;;;3.20;2.30;;;;;;;;;;5041231;28;20206;-65
2022/09/06 08:42:30;;;;;;;2.33;1.90;;;;;;;;;;5048239;28;20200;-68
2022/09/06 08:45:17;;;;;;;2.50;2.00;;;;;;;;;;5054328;28;20221;-67
2022/09/06 08:47:51;;;;;;;2.80;1.93;;;;;;;;;;5042721;28;20230;-67
2022/09/06 08:50:22;;;;;;;2.40;1.80;;;;;;;;;;5043185;28;20214;-67
2022/09/06 08:53:03;;;;;;;2.70;1.80;;;;;;;;;;5037386;28;20221;-67
2022/09/06 08:55:55;;;;;;;2.73;1.60;;;;;;;;;;5041339;28;20202;-70
2022/09/06 08:59:00;;;;;;;2.00;1.80;;;;;;;;;;5046874;28;20198;-69
2022/09/06 09:01:40;;;;;;;1.60;1.50;;;;;;;;;;5060796;28;20519;-70
2022/09/06 09:04:21;;;;;;;1.67;1.57;;;;;;;;;;5049797;28;20214;-68
2022/09/06 09:06:53;;;;;;;2.83;1.60;;;;;;;;;;5046654;28;20251;-68
2022/09/06 09:09:32;;;;;;;2.60;1.50;;;;;;;;;;5047832;28;20201;-67
2022/09/06 09:12:05;;;;;;;1.47;1.37;;;;;;;;;;5051616;28;20189;-66
2022/09/06 09:14:42;;;;;;;2.70;1.43;;;;;;;;;;5029619;28;20212;-66
2022/09/06 09:17:21;;;;;;;1.73;1.60;;;;;;;;;;5054981;28;20202;-66
2022/09/06 09:19:52;;;;;;;1.70;1.60;;;;;;;;;;5036958;28;20194;-66
2022/09/06 09:22:24;;;;;;;2.00;1.37;;;;;;;;;;5048733;28;20209;-66
2022/09/06 09:24:57;;;;;;;1.77;1.40;;;;;;;;;;5048788;28;20201;-65
2022/09/06 09:27:30;;;;;;;1.80;1.30;;;;;;;;;;5044961;28;20209;-64
2022/09/06 09:30:03;;;;;;;2.93;1.40;;;;;;;;;;5039815;28;20212;-64
2022/09/06 09:32:58;;;;;;;4.83;1.67;;;;;;;;;;5023485;28;20206;-66
2022/09/06 09:35:40;;;;;;;1.30;1.20;;;;;;;;;;5050625;28;20256;-67
2022/09/06 09:38:21;;;;;;;1.70;1.40;;;;;;;;;;5042062;28;20280;-67
2022/09/06 09:41:01;;;;;;;1.57;1.40;;;;;;;;;;5042433;28;20223;-68
2022/09/06 09:43:43;;;;;;;2.00;1.20;;;;;;;;;;5046490;28;20205;-69
2022/09/06 09:46:29;;;;;;;1.70;1.30;;;;;;;;;;5061525;28;20605;-65
2022/09/06 09:49:13;;;;;;;3.33;1.30;;;;;;;;;;5064165;28;20213;-66
2022/09/06 09:51:43;;;;;;;1.90;1.27;;;;;;;;;;5059872;28;20197;-67
2022/09/06 09:54:13;;;;;;;2.03;1.20;;;;;;;;;;5034419;28;20194;-69
2022/09/06 09:56:52;;;;;;;1.60;1.23;;;;;;;;;;5066398;28;20198;-62
2022/09/06 09:59:48;;;;;;;2.43;1.33;;;;;;;;;;5066998;28;20700;-62
2022/09/06 10:02:38;;;;;;;3.30;1.40;;;;;;;;;;5062159;28;20303;-62
2022/09/06 10:05:18;;;;;;;3.63;1.60;;;;;;;;;;5067269;28;20189;-61
2022/09/06 10:07:52;;;;;;;2.50;1.20;;;;;;;;;;5063937;28;20190;-62
2022/09/06 10:10:36;;;;;;;1.60;1.50;;;;;;;;;;5067984;28;20205;-62
2022/09/06 10:13:20;;;;;;;1.67;1.30;;;;;;;;;;5077793;28;20206;-62
2022/09/06 10:15:54;;;;;;;2.53;1.63;;;;;;;;;;5054179;28;20205;-62
2022/09/06 10:18:38;;;;;;;1.60;1.30;;;;;;;;;;5063290;28;20209;-62
2022/09/06 10:21:16;;;;;;;2.03;1.47;;;;;;;;;;5054658;28;20197;-62
2022/09/06 10:24:04;;;;;;;1.47;1.30;;;;;;;;;;5049733;28;20233;-61
2022/09/06 10:26:58;;;;;;;2.33;1.40;;;;;;;;;;5079946;28;20668;-61
2022/09/06 10:29:35;;;;;;;2.40;1.30;;;;;;;;;;5051899;28;20255;-62
2022/09/06 10:32:41;;;;;;;1.60;1.47;;;;;;;;;;5055258;28;20626;-62
2022/09/06 10:35:29;;;;;;;1.50;1.30;;;;;;;;;;5055405;28;20240;-62
2022/09/06 10:38:15;;;;;;;1.73;1.40;;;;;;;;;;5062679;28;20218;-62
2022/09/06 10:41:03;;;;;;;3.23;1.80;;;;;;;;;;5062346;28;20267;-62
2022/09/06 10:43:52;;;;;;;1.67;1.43;;;;;;;;;;5036730;28;20878;-62
2022/09/06 10:46:27;;;;;;;1.73;1.40;;;;;;;;;;5065749;28;20217;-62
2022/09/06 10:49:09;;;;;;;1.67;1.30;;;;;;;;;;5051977;28;20221;-61
2022/09/06 10:51:55;;;;;;;1.60;1.50;;;;;;;;;;5057940;28;20210;-62
2022/09/06 10:54:25;;;;;;;2.27;1.23;;;;;;;;;;5058669;28;20213;-62
2022/09/06 10:57:02;;;;;;;1.57;1.10;;;;;;;;;;5070861;28;20644;-62
2022/09/06 10:59:41;;;;;;;1.70;1.47;;;;;;;;;;5059038;28;20217;-67
2022/09/06 11:02:16;;;;;;;2.13;1.40;;;;;;;;;;5059279;28;20205;-68
2022/09/06 11:04:52;;;;;;;1.83;1.40;;;;;;;;;;5070299;28;20201;-69
2022/09/06 11:07:45;;;;;;;2.27;1.50;;;;;;;;;;5073207;28;20659;-67
2022/09/06 11:10:44;;;;;;;2.20;1.70;;;;;;;;;;5068811;28;20200;-65
2022/09/06 11:13:23;;;;;;;3.03;1.30;;;;;;;;;;5069401;28;20194;-67
2022/09/06 11:16:03;;;;;;;3.67;1.43;;;;;;;;;;5074736;28;20251;-68
2022/09/06 11:18:51;;;;;;;2.70;1.40;;;;;;;;;;5073171;28;20197;-67
2022/09/06 11:21:41;;;;;;;1.33;1.20;;;;;;;;;;5069679;28;20203;-67
2022/09/06 11:24:33;;;;;;;2.13;1.40;;;;;;;;;;5066108;28;20218;-66
2022/09/06 11:27:27;;;;;;;1.87;1.60;;;;;;;;;;5072034;28;20220;-66
2022/09/06 11:30:13;;;;;;;1.40;1.10;;;;;;;;;;5083481;28;20205;-66
2022/09/06 11:33:21;;;;;;;2.40;1.50;;;;;;;;;;5054716;28;20627;-68
2022/09/06 11:35:49;;;;;;;1.73;1.50;;;;;;;;;;5066060;28;20201;-68
2022/09/06 11:38:30;;;;;;;2.30;1.33;;;;;;;;;;5050601;28;20205;-67
2022/09/06 11:41:01;;;;;;;3.00;1.43;;;;;;;;;;5067403;28;20197;-66
2022/09/06 11:43:47;;;;;;;1.50;1.40;;;;;;;;;;5065647;28;20234;-64
2022/09/06 11:46:41;;;;;;;5.57;1.60;;;;;;;;;;5060033;28;20198;-63
2022/09/06 11:49:19;;;;;;;1.57;1.33;;;;;;;;;;5043277;28;20762;-63
2022/09/06 11:51:51;;;;;;;2.50;1.50;;;;;;;;;;5059051;28;20205;-63
2022/09/06 11:54:23;;;;;;;2.00;1.53;;;;;;;;;;5082350;28;20197;-63
2022/09/06 11:57:25;;;;;;;1.47;1.27;;;;;;;;;;5070511;28;20193;-63
2022/09/06 12:00:02;;;;;;;1.53;1.20;;;;;;;;;;5050502;28;20674;-63
2022/09/06 12:02:37;;;;;;;1.30;1.20;;;;;;;;;;5064978;28;20209;-62
2022/09/06 12:05:16;;;;;;;1.40;1.30;;;;;;;;;;5036494;28;20647;-62
2022/09/06 12:08:06;;;;;;;1.40;1.30;;;;;;;;;;5059317;28;20278;-62
2022/09/06 12:10:57;;;;;;;1.23;1.13;;;;;;;;;;5065766;28;20206;-62
2022/09/06 12:13:55;;;;;;;1.60;1.10;;;;;;;;;;5064524;28;20208;-63
2022/09/06 12:16:23;;;;;;;1.43;1.33;;;;;;;;;;5050697;28;20268;-65
2022/09/06 12:18:54;;;;;;;2.00;1.30;;;;;;;;;;5050155;28;20679;-65
2022/09/06 12:21:46;;;;;;;1.73;1.50;;;;;;;;;;5079196;28;20588;-65
2022/09/06 12:24:37;;;;;;;1.40;1.30;;;;;;;;;;5066120;28;20779;-65
2022/09/06 12:27:21;;;;;;;1.40;1.30;;;;;;;;;;5057629;28;20205;-65
2022/09/06 12:29:59;;;;;;;1.57;1.30;;;;;;;;;;5073466;28;20955;-65
2022/09/06 12:32:47;;;;;;;1.60;1.40;;;;;;;;;;5083371;28;20208;-62
2022/09/06 12:35:23;;;;;;;1.37;1.20;;;;;;;;;;5068868;28;20659;-64
2022/09/06 12:38:18;;;;;;;1.40;1.30;;;;;;;;;;5074626;28;20240;-64
2022/09/06 12:40:56;;;;;;;1.23;1.20;;;;;;;;;;5050340;28;20225;-64
2022/09/06 12:43:27;;;;;;;1.83;1.20;;;;;;;;;;5069775;28;20293;-64
2022/09/06 12:46:00;;;;;;;1.40;1.30;;;;;;;;;;5064504;28;20852;-64
2022/09/06 12:48:40;;;;;;;1.20;1.10;;;;;;;;;;5062349;28;20578;-64
2022/09/06 12:51:42;;;;;;;1.23;1.10;;;;;;;;;;5059125;28;20278;-64
2022/09/06 12:54:23;;;;;;;1.33;1.20;;;;;;;;;;5066904;28;20194;-64
2022/09/06 12:56:57;;;;;;;1.83;1.30;;;;;;;;;;5067286;28;20255;-64
2022/09/06 12:59:31;;;;;;;1.40;1.30;;;;;;;;;;5073744;28;20237;-63
2022/09/06 13:02:16;;;;;;;1.30;1.20;;;;;;;;;;5063823;28;20198;-64
2022/09/06 13:04:54;;;;;;;1.57;1.30;;;;;;;;;;5080171;28;20241;-63
2022/09/06 13:07:27;;;;;;;1.10;1.07;;;;;;;;;;5065517;28;20255;-63
2022/09/06 13:09:57;;;;;;;0.80;0.80;;;;;;;;;;5070858;28;20209;-62
2022/09/06 13:12:37;;;;;;;1.37;1.10;;;;;;;;;;5072035;28;20200;-64
2022/09/06 13:15:25;;;;;;;1.07;1.03;;;;;;;;;;5076599;28;20281;-64
2022/09/06 13:17:58;;;;;;;1.10;1.00;;;;;;;;;;5062269;28;20408;-64
2022/09/06 13:20:33;;;;;;;1.20;1.10;;;;;;;;;;5068232;28;20193;-64
2022/09/06 13:23:11;;;;;;;1.30;1.20;;;;;;;;;;5065892;28;20273;-65
2022/09/06 13:25:50;;;;;;;1.20;1.10;;;;;;;;;;5073699;28;20224;-62
2022/09/06 13:28:28;;;;;;;1.10;1.00;;;;;;;;;;5065072;28;20189;-63
2022/09/06 13:31:08;;;;;;;1.23;1.10;;;;;;;;;;5061398;28;20284;-64
2022/09/06 13:33:41;;;;;;;1.50;1.20;;;;;;;;;;5061760;28;20193;-63
2022/09/06 13:36:20;;;;;;;0.97;0.97;;;;;;;;;;5079684;28;20259;-63
2022/09/06 13:38:55;;;;;;;1.30;1.20;;;;;;;;;;5048015;28;20271;-63
2022/09/06 13:41:37;;;;;;;1.20;0.97;;;;;;;;;;5059358;28;20247;-63
2022/09/06 13:44:27;;;;;;;1.60;1.10;;;;;;;;;;5067073;28;20830;-63
2022/09/06 13:46:59;;;;;;;0.93;0.93;;;;;;;;;;5080302;28;20229;-63
2022/09/06 13:49:34;;;;;;;1.57;1.43;;;;;;;;;;5049942;28;20221;-63
2022/09/06 13:52:04;;;;;;;2.83;1.30;;;;;;;;;;5065125;28;20667;-63
2022/09/06 13:54:36;;;;;;;1.13;1.03;;;;;;;;;;5051437;28;20203;-63
2022/09/06 13:57:08;;;;;;;1.57;1.20;;;;;;;;;;5048447;28;20209;-64
2022/09/06 13:59:41;;;;;;;1.20;1.20;;;;;;;;;;5044371;28;20198;-64
2022/09/06 14:02:14;;;;;;;2.73;1.20;;;;;;;;;;5045626;28;20275;-64
2022/09/06 14:04:45;;;;;;;1.30;1.20;;;;;;;;;;5049853;28;20602;-64
2022/09/06 14:07:16;;;;;;;1.53;1.30;;;;;;;;;;5047903;28;20202;-64
2022/09/06 14:09:46;;;;;;;1.97;1.40;;;;;;;;;;5051350;28;20190;-64
2022/09/06 14:12:19;;;;;;;1.53;1.40;;;;;;;;;;5049026;28;20532;-63
2022/09/06 14:14:53;;;;;;;2.30;1.40;;;;;;;;;;5049561;28;20241;-64
2022/09/06 14:17:24;;;;;;;2.23;1.30;;;;;;;;;;5048624;28;20194;-64
2022/09/06 14:19:58;;;;;;;1.17;1.17;;;;;;;;;;5053059;28;20201;-65
2022/09/06 14:22:32;;;;;;;1.67;1.30;;;;;;;;;;5049012;28;20606;-64
2022/09/06 14:25:03;;;;;;;1.60;1.33;;;;;;;;;;5051414;28;20701;-64
2022/09/06 14:27:41;;;;;;;2.23;1.40;;;;;;;;;;5056046;28;20212;-64
2022/09/06 14:30:12;;;;;;;1.67;1.43;;;;;;;;;;5047586;28;20813;-64
2022/09/06 14:32:44;;;;;;;3.73;1.40;;;;;;;;;;5031107;28;20229;-64
2022/09/06 14:35:17;;;;;;;1.30;1.13;;;;;;;;;;5030068;28;20203;-63
2022/09/06 14:37:48;;;;;;;1.40;1.13;;;;;;;;;;5042731;28;20198;-64
2022/09/06 14:40:17;;;;;;;1.40;1.30;;;;;;;;;;5045726;28;20210;-63
2022/09/06 14:42:48;;;;;;;1.73;1.40;;;;;;;;;;5048395;28;20228;-63
2022/09/06 14:45:18;;;;;;;1.40;1.30;;;;;;;;;;5035796;28;20233;-63
2022/09/06 14:47:51;;;;;;;1.70;1.20;;;;;;;;;;5048120;28;20262;-63
2022/09/06 14:50:26;;;;;;;2.33;0.97;;;;;;;;;;5045294;28;20215;-63
2022/09/06 14:52:55;;;;;;;1.63;1.30;;;;;;;;;;5047884;28;20260;-63
2022/09/06 14:55:24;;;;;;;1.30;1.13;;;;;;;;;;5051747;28;20190;-64
2022/09/06 14:57:56;;;;;;;2.20;1.33;;;;;;;;;;5043471;28;20217;-64
2022/09/06 15:00:29;;;;;;;1.40;1.30;;;;;;;;;;5045907;28;20257;-64
2022/09/06 15:02:59;;;;;;;1.30;1.20;;;;;;;;;;5044749;28;20218;-64
2022/09/06 15:05:31;;;;;;;1.43;1.30;;;;;;;;;;5049681;28;20821;-63
2022/09/06 15:08:03;;;;;;;1.17;1.17;;;;;;;;;;5048598;28;20195;-63
2022/09/06 15:10:57;;;;;;;1.40;1.30;;;;;;;;;;5027351;28;20261;-65
2022/09/06 15:13:35;;;;;;;1.53;1.30;;;;;;;;;;5028471;28;20523;-64
2022/09/06 15:16:11;;;;;;;1.20;1.10;;;;;;;;;;5030354;28;20219;-64
2022/09/06 15:18:41;;;;;;;1.50;1.30;;;;;;;;;;5003563;28;20221;-64
2022/09/06 15:21:12;;;;;;;2.20;1.37;;;;;;;;;;5044390;28;20199;-64
2022/09/06 15:23:44;;;;;;;1.90;1.50;;;;;;;;;;5040645;28;20199;-64
2022/09/06 15:26:30;;;;;;;1.40;1.30;;;;;;;;;;5011964;28;20334;-64
2022/09/06 15:29:01;;;;;;;1.90;1.70;;;;;;;;;;5028623;28;20534;-65
2022/09/06 15:31:34;;;;;;;2.27;1.30;;;;;;;;;;5043752;28;20206;-64
2022/09/06 15:34:04;;;;;;;1.73;1.50;;;;;;;;;;5022650;28;20195;-64
2022/09/06 15:36:39;;;;;;;2.20;1.53;;;;;;;;;;5029724;28;20199;-64
2022/09/06 15:39:09;;;;;;;2.60;1.90;;;;;;;;;;5024704;28;20222;-64